createdAt,value
2022-10-25T00:00:27.115Z,99689.53
2022-10-25T00:03:31.610Z,99684.22
2022-10-25T00:06:34.270Z,99683.94
2022-10-25T00:09:36.992Z,99687.56
2022-10-25T00:12:44.380Z,99682.13
2022-10-25T00:15:47.073Z,99693.75
2022-10-25T00:18:50.148Z,99689.25
2022-10-25T00:21:52.813Z,99679.47
2022-10-25T00:24:55.532Z,99696.41
2022-10-25T00:27:59.566Z,99694.59
2022-10-25T00:31:02.979Z,99685.63
2022-10-25T00:34:06.071Z,99684.91
2022-10-25T00:37:08.717Z,99679.47
2022-10-25T00:40:12.071Z,99671.59
2022-10-25T00:43:29.638Z,99680.56
2022-10-25T00:46:33.771Z,99679.72
2022-10-25T00:49:36.460Z,99685.06
2022-10-25T00:52:40.185Z,99677.19
2022-10-25T00:55:45.620Z,99681.69
2022-10-25T00:58:50.647Z,99675.22
2022-10-25T01:01:56.006Z,99687.88
2022-10-25T01:05:15.163Z,99682.53
2022-10-25T01:08:18.848Z,99681.00
2022-10-25T01:11:21.689Z,99681.69
2022-10-25T01:14:24.644Z,99685.34
2022-10-25T01:17:33.911Z,99674.69
2022-10-25T01:20:55.340Z,99678.19
2022-10-25T01:24:18.680Z,99681.13
2022-10-25T01:27:39.806Z,99680.84
2022-10-25T01:31:00.320Z,99676.38
2022-10-25T01:34:07.380Z,99677.19
2022-10-25T01:37:12.302Z,99679.03
2022-10-25T01:40:19.140Z,99680.56
2022-10-25T01:43:27.856Z,99678.03
2022-10-25T01:46:33.857Z,99669.22
2022-10-25T01:49:39.387Z,99667.38
2022-10-25T01:52:42.094Z,99666.69
2022-10-25T01:55:48.031Z,99662.06
2022-10-25T01:58:58.913Z,99678.19
2022-10-25T02:02:08.035Z,99668.22
2022-10-25T02:05:15.198Z,99670.34
2022-10-25T02:08:22.332Z,99670.19
2022-10-25T02:11:26.379Z,99666.53
2022-10-25T02:14:33.475Z,99661.34
2022-10-25T02:17:39.813Z,99651.69
2022-10-25T02:20:46.606Z,99655.19
2022-10-25T02:23:51.566Z,99650.69
2022-10-25T02:26:54.631Z,99654.06
2022-10-25T02:29:57.964Z,99648.59
2022-10-25T02:33:02.551Z,99641.03
2022-10-25T02:36:09.746Z,99645.22
2022-10-25T02:39:12.539Z,99657.84
2022-10-25T02:42:15.178Z,99652.25
2022-10-25T02:45:17.947Z,99655.03
2022-10-25T02:48:22.029Z,99643.41
2022-10-25T02:51:24.782Z,99650.69
2022-10-25T02:54:27.459Z,99649.72
2022-10-25T02:57:33.353Z,99654.06
2022-10-25T03:00:36.097Z,99648.88
2022-10-25T03:03:40.189Z,99648.03
2022-10-25T03:06:42.900Z,99646.34
2022-10-25T03:09:45.605Z,99647.75
2022-10-25T03:12:48.518Z,99644.25
2022-10-25T03:15:51.493Z,99637.22
2022-10-25T03:18:57.289Z,99634.56
2022-10-25T03:22:00.052Z,99621.25
2022-10-25T03:25:02.820Z,99619.41
2022-10-25T03:28:05.717Z,99623.91
2022-10-25T03:31:12.028Z,99631.75
2022-10-25T03:34:16.137Z,99629.09
2022-10-25T03:37:18.875Z,99629.38
2022-10-25T03:40:22.196Z,99638.22
2022-10-25T03:43:24.972Z,99625.03
2022-10-25T03:46:27.694Z,99632.88
2022-10-25T03:49:31.851Z,99635.41
2022-10-25T03:52:34.544Z,99626.72
2022-10-25T03:55:37.247Z,99626.56
2022-10-25T03:58:39.915Z,99625.59
2022-10-25T04:01:42.698Z,99621.94
2022-10-25T04:04:46.862Z,99631.22
2022-10-25T04:07:49.917Z,99628.41
2022-10-25T04:11:06.560Z,99613.41
2022-10-25T04:14:09.324Z,99620.25
2022-10-25T04:17:11.982Z,99619.28
2022-10-25T04:20:16.171Z,99628.25
2022-10-25T04:23:18.901Z,99610.59
2022-10-25T04:26:21.583Z,99622.22
2022-10-25T04:29:24.317Z,99629.94
2022-10-25T04:32:27.081Z,99637.94
2022-10-25T04:35:31.070Z,99630.78
2022-10-25T04:38:33.771Z,99640.72
2022-10-25T04:41:36.397Z,99639.59
2022-10-25T04:44:39.186Z,99638.75
2022-10-25T04:47:41.877Z,99644.94
2022-10-25T04:50:45.982Z,99649.44
2022-10-25T04:53:48.712Z,99651.41
2022-10-25T04:56:51.415Z,99646.75
2022-10-25T04:59:54.182Z,99655.75
2022-10-25T05:02:57.249Z,99653.06
2022-10-25T05:06:07.406Z,99652.25
2022-10-25T05:09:10.102Z,99641.56
2022-10-25T05:12:12.848Z,99648.88
2022-10-25T05:15:15.637Z,99648.16
2022-10-25T05:18:18.387Z,99658.56
2022-10-25T05:21:22.903Z,99658.56
2022-10-25T05:24:25.721Z,99656.72
2022-10-25T05:27:28.409Z,99657.84
2022-10-25T05:30:31.054Z,99669.22
2022-10-25T05:33:34.228Z,99673.00
2022-10-25T05:36:38.476Z,99669.22
2022-10-25T05:39:41.144Z,99662.59
2022-10-25T05:42:44.001Z,99671.59
2022-10-25T05:45:46.888Z,99674.69
2022-10-25T05:48:50.114Z,99671.31
2022-10-25T05:51:54.208Z,99680.31
2022-10-25T05:54:56.984Z,99665.84
2022-10-25T05:57:59.739Z,99669.06
2022-10-25T06:01:02.517Z,99673.00
2022-10-25T06:04:05.599Z,99670.34
2022-10-25T06:07:09.704Z,99667.81
2022-10-25T06:10:12.518Z,99664.16
2022-10-25T06:13:15.212Z,99663.75
2022-10-25T06:16:18.889Z,99672.88
2022-10-25T06:19:21.606Z,99655.03
2022-10-25T06:22:25.729Z,99658.84
2022-10-25T06:25:28.378Z,99663.47
2022-10-25T06:28:32.531Z,99678.78
2022-10-25T06:31:35.311Z,99673.28
2022-10-25T06:34:38.124Z,99670.91
2022-10-25T06:37:42.201Z,99675.97
2022-10-25T06:40:44.879Z,99673.88
2022-10-25T06:43:47.845Z,99678.91
2022-10-25T06:47:16.009Z,99665.56
2022-10-25T06:50:13.335Z,99674.97
2022-10-25T06:53:17.426Z,99669.22
2022-10-25T06:56:20.168Z,99661.50
2022-10-25T06:59:23.682Z,99667.81
2022-10-25T07:02:26.506Z,99664.84
2022-10-25T07:05:29.375Z,99666.84
2022-10-25T07:08:33.568Z,99672.59
2022-10-25T07:11:36.583Z,99667.94
2022-10-25T07:14:39.325Z,99666.13
2022-10-25T07:17:41.978Z,99660.50
2022-10-25T07:20:48.444Z,99654.75
2022-10-25T07:23:53.580Z,99665.69
2022-10-25T07:26:56.308Z,99674.41
2022-10-25T07:29:59.112Z,99662.03
2022-10-25T07:33:03.156Z,99652.06
2022-10-25T07:36:10.714Z,99656.03
2022-10-25T07:39:15.886Z,99641.41
2022-10-25T07:42:18.796Z,99654.47
2022-10-25T07:45:24.364Z,99654.47
2022-10-25T07:48:29.385Z,99654.75
2022-10-25T07:51:32.125Z,99657.84
2022-10-25T07:54:36.672Z,99659.25
2022-10-25T07:57:39.489Z,99648.84
2022-10-25T08:00:42.283Z,99645.75
2022-10-25T08:03:46.020Z,99644.09
2022-10-25T08:06:50.857Z,99646.88
2022-10-25T08:09:58.189Z,99640.84
2022-10-25T08:13:04.134Z,99636.03
2022-10-25T08:16:07.521Z,99637.16
2022-10-25T08:19:19.832Z,99633.66
2022-10-25T08:22:22.575Z,99639.56
2022-10-25T08:25:27.105Z,99632.22
2022-10-25T08:28:31.299Z,99642.22
2022-10-25T08:31:34.285Z,99647.56
2022-10-25T08:34:37.155Z,99644.59
2022-10-25T08:37:39.847Z,99647.38
2022-10-25T08:40:49.635Z,99650.22
2022-10-25T08:44:09.202Z,99645.03
2022-10-25T08:47:14.982Z,99641.91
2022-10-25T08:50:20.399Z,99643.75
2022-10-25T08:53:25.212Z,99650.22
2022-10-25T08:56:31.157Z,99637.88
2022-10-25T08:59:36.388Z,99631.41
2022-10-25T09:02:42.150Z,99632.38
2022-10-25T09:05:51.442Z,99630.13
2022-10-25T09:09:00.087Z,99629.13
2022-10-25T09:12:11.168Z,99627.09
2022-10-25T09:15:19.086Z,99620.81
2022-10-25T09:18:24.503Z,99629.50
2022-10-25T09:21:31.396Z,99623.63
2022-10-25T09:24:37.662Z,99629.66
2022-10-25T09:27:47.519Z,99622.47
2022-10-25T09:30:52.677Z,99634.16
2022-10-25T09:34:03.989Z,99619.13
2022-10-25T09:37:11.718Z,99616.91
2022-10-25T09:40:16.883Z,99614.25
2022-10-25T09:43:24.454Z,99604.97
2022-10-25T09:46:33.193Z,99614.34
2022-10-25T09:49:39.586Z,99608.19
2022-10-25T09:52:44.913Z,99609.47
2022-10-25T09:55:51.939Z,99609.59
2022-10-25T09:58:56.951Z,99611.28
2022-10-25T10:01:59.981Z,99606.50
2022-10-25T14:39:26.060Z,99484.59
2022-10-25T14:42:28.713Z,99486.50
2022-10-25T14:45:31.665Z,99483.84
2022-10-25T14:48:34.641Z,99476.00
2022-10-25T14:51:38.720Z,99474.09
2022-10-25T14:54:43.286Z,99483.78
2022-10-25T14:57:46.862Z,99473.28
2022-10-25T15:01:00.698Z,99474.41
2022-10-25T15:04:03.630Z,99470.19
2022-10-25T15:07:06.749Z,99467.66
2022-10-25T15:10:24.473Z,99465.69
2022-10-25T15:13:33.599Z,99462.94
2022-10-25T15:16:37.453Z,99459.81
2022-10-25T15:19:55.086Z,99456.63
2022-10-25T15:23:08.033Z,99462.50
2022-10-25T15:26:27.570Z,99460.38
2022-10-25T15:29:44.656Z,99467.41
2022-10-25T15:32:47.891Z,99456.47
2022-10-25T15:35:51.772Z,99453.66
2022-10-25T15:39:16.549Z,99454.78
2022-10-25T15:42:19.390Z,99454.91
2022-10-25T15:45:23.569Z,99454.75
2022-10-25T15:48:26.287Z,99451.69
2022-10-25T15:51:33.375Z,99455.75
2022-10-25T15:54:36.129Z,99449.84
2022-10-25T15:57:38.801Z,99456.44
2022-10-25T16:00:43.437Z,99452.94
2022-10-25T16:03:46.379Z,99450.28
2022-10-25T16:06:49.146Z,99447.75
2022-10-25T16:09:51.921Z,99444.94
2022-10-25T16:12:58.657Z,99442.41
2022-10-25T16:16:11.794Z,99449.28
2022-10-25T16:19:26.417Z,99443.22
2022-10-25T16:22:29.131Z,99449.81
2022-10-25T16:25:33.174Z,99450.66
2022-10-25T16:28:36.053Z,99449.13
2022-10-25T16:31:40.440Z,99450.97
2022-10-25T16:34:46.093Z,99447.31
2022-10-25T16:37:49.094Z,99444.63
2022-10-25T16:40:52.021Z,99431.31
2022-10-25T16:43:55.236Z,99429.75
2022-10-25T16:46:59.989Z,99429.75
2022-10-25T16:50:02.754Z,99429.06
2022-10-25T16:53:07.212Z,99422.59
2022-10-25T16:56:11.438Z,99419.66
2022-10-25T16:59:14.511Z,99414.16
2022-10-25T17:02:20.755Z,99413.19
2022-10-25T17:05:25.179Z,99416.69
2022-10-25T17:08:27.892Z,99414.84
2022-10-25T17:11:30.692Z,99410.22
2022-10-25T17:14:33.466Z,99407.13
2022-10-25T17:17:37.624Z,99404.44
2022-10-25T17:20:40.340Z,99410.22
2022-10-25T17:23:43.098Z,99408.09
2022-10-25T17:26:45.851Z,99404.44
2022-10-25T17:29:48.646Z,99409.94
2022-10-25T17:32:53.259Z,99402.09
2022-10-25T17:35:56.225Z,99395.75
2022-10-25T17:38:58.999Z,99397.03
2022-10-25T17:42:01.702Z,99393.22
2022-10-25T17:45:04.435Z,99401.09
2022-10-25T17:48:08.557Z,99402.78
2022-10-25T17:51:12.512Z,99399.28
2022-10-25T17:54:16.763Z,99390.13
2022-10-25T17:57:19.509Z,99388.44
2022-10-25T18:00:22.442Z,99393.78
2022-10-25T18:03:26.618Z,99384.50
2022-10-25T18:06:30.959Z,99377.78
2022-10-25T18:09:33.790Z,99378.78
2022-10-25T18:12:36.587Z,99385.22
2022-10-25T18:15:39.307Z,99384.09
2022-10-25T18:18:43.466Z,99383.44
2022-10-25T18:21:46.266Z,99385.09
2022-10-25T18:24:50.422Z,99383.97
2022-10-25T18:27:53.648Z,99380.31
2022-10-25T18:30:59.874Z,99371.47
2022-10-25T18:34:05.000Z,99368.53
2022-10-25T18:37:07.967Z,99374.53
2022-10-25T18:40:12.745Z,99373.00
2022-10-25T18:43:15.799Z,99377.47
2022-10-25T18:46:18.701Z,99373.84
2022-10-25T18:49:24.359Z,99372.03
2022-10-25T18:52:27.627Z,99364.16
2022-10-25T18:55:30.678Z,99367.53
2022-10-25T18:58:33.564Z,99371.44
2022-10-25T19:01:36.602Z,99366.38
2022-10-25T19:04:40.935Z,99364.88
2022-10-25T19:07:43.806Z,99355.03
2022-10-25T19:10:47.324Z,99354.19
2022-10-25T19:13:53.622Z,99356.03
2022-10-25T19:16:56.594Z,99356.16
2022-10-25T19:20:00.907Z,99363.31
2022-10-25T19:23:03.939Z,99357.53
2022-10-25T19:26:07.986Z,99357.22
2022-10-25T19:29:11.180Z,99369.59
2022-10-25T19:32:14.092Z,99365.53
2022-10-25T19:35:22.957Z,99362.28
2022-10-25T19:38:26.009Z,99355.56
2022-10-25T19:41:28.811Z,99366.53
2022-10-25T19:44:31.828Z,99354.72
2022-10-25T19:47:35.072Z,99353.22
2022-10-25T19:50:39.289Z,99354.72
2022-10-25T19:53:42.214Z,99349.13
2022-10-25T19:56:44.847Z,99337.59
2022-10-25T19:59:47.576Z,99327.91
2022-10-25T20:02:50.240Z,99326.09
2022-10-25T20:05:58.853Z,99324.97
2022-10-25T20:09:02.636Z,99318.22
2022-10-25T20:12:05.787Z,99314.56
2022-10-25T20:15:08.908Z,99313.47
2022-10-25T20:18:11.661Z,99307.28
2022-10-25T20:21:17.090Z,99312.63
2022-10-25T20:24:19.861Z,99302.13
2022-10-25T20:27:22.989Z,99294.13
2022-10-25T20:30:25.693Z,99296.47
2022-10-25T20:33:28.444Z,99298.44
2022-10-25T20:36:32.492Z,99287.63
2022-10-25T20:39:35.173Z,99286.25
2022-10-25T20:42:38.985Z,99280.47
2022-10-25T20:45:44.108Z,99276.66
2022-10-25T20:48:46.962Z,99264.31
2022-10-25T20:51:51.227Z,99267.97
2022-10-25T20:54:54.009Z,99259.81
2022-10-25T20:57:56.815Z,99256.97
2022-10-25T21:00:59.493Z,99251.97
2022-10-25T21:04:02.260Z,99256.31
2022-10-25T21:07:06.295Z,99245.81
2022-10-25T21:10:09.348Z,99252.41
2022-10-25T21:13:12.091Z,99249.22
2022-10-25T21:16:15.407Z,99245.56
2022-10-25T21:19:18.192Z,99240.38
2022-10-25T21:22:22.285Z,99234.91
2022-10-25T21:25:24.964Z,99235.75
2022-10-25T21:28:27.844Z,99222.56
2022-10-25T21:31:30.523Z,99219.06
2022-10-25T21:34:33.206Z,99219.22
2022-10-25T21:37:37.264Z,99225.50
2022-10-25T21:40:40.032Z,99223.09
2022-10-25T21:43:43.799Z,99220.19
2022-10-25T21:46:46.914Z,99220.50
2022-10-25T21:49:49.588Z,99219.22
2022-10-25T21:52:55.090Z,99214.84
2022-10-25T21:56:07.970Z,99213.50
2022-10-25T21:59:10.643Z,99217.84
2022-10-25T22:02:13.497Z,99209.16
2022-10-25T22:05:16.434Z,99206.78
2022-10-25T22:08:21.992Z,99201.28
2022-10-25T22:11:25.544Z,99193.16
2022-10-25T22:14:28.341Z,99196.50
2022-10-25T22:17:31.083Z,99197.56
2022-10-25T22:20:33.726Z,99189.19
2022-10-25T22:23:37.983Z,99184.19
2022-10-25T22:26:41.616Z,99175.50
2022-10-25T22:29:44.396Z,99173.66
2022-10-25T22:32:47.406Z,99171.84
2022-10-25T22:35:50.238Z,99168.34
2022-10-25T22:38:54.602Z,99172.69
2022-10-25T22:41:57.249Z,99169.19
2022-10-25T22:44:59.977Z,99162.84
2022-10-25T22:48:02.787Z,99163.00
2022-10-25T22:51:05.844Z,99158.50
2022-10-25T22:54:10.067Z,99154.00
2022-10-25T22:57:12.798Z,99148.84
2022-10-25T23:00:15.743Z,99150.50
2022-10-25T23:03:18.732Z,99148.97
2022-10-25T23:06:22.336Z,99144.47
2022-10-25T23:12:30.004Z,99136.34
2022-10-25T23:15:32.742Z,99143.34
2022-10-25T23:18:35.557Z,99140.13
2022-10-25T23:21:38.350Z,99123.03
2022-10-25T23:24:42.467Z,99127.53
2022-10-25T23:27:45.332Z,99128.47
2022-10-25T23:30:48.301Z,99119.53
2022-10-25T23:33:51.891Z,99116.84
2022-10-25T23:36:54.528Z,99110.53
2022-10-25T23:39:58.645Z,99109.81
2022-10-25T23:43:01.634Z,99115.84
2022-10-25T23:46:04.691Z,99105.19
2022-10-25T23:49:07.363Z,99106.31
2022-10-25T23:52:10.066Z,99102.66
2022-10-25T23:55:14.129Z,99100.16
2022-10-25T23:58:16.869Z,99097.34
